The Vicarage Weather Feed Station Historical Data
 
Daily Summary for September 27, 2021 Units:  Metric    English   Both
Daily Weekly Monthly Yearly
  Current: High: Low: Average:
Temperature: 23.4 °C 23.4 °C 14.3 °C 18.1 °C
Dew Point: 16.2 °C 16.6 °C 11.6 °C 14.2 °C
Humidity: 64% 85% 63% 78%
Wind Speed: 0km/h 16.1km/h 0km/h 3.2km/h
Wind Gust: 17.7km/h 22.5km/h - -
WindCalm - - South
Pressure: 1006.0 hPa 1010.4 hPa 1006.0 hPa -
Precipitation: 2.0 mm      
 
 
Tabular Data for September 27, 2021
Time Temperature Dew Point Pressure Wind Wind Speed Wind Gust Humidity Rainfall Rate (Hourly) solar
00:00 14.9 °C 11.8 °C 1010.4 hPa Calm     82% 0.0 mm W/m2
00:10 15.3 °C 11.9 °C 1010.3 hPa Calm   3.2 km/h 80% 0.0 mm W/m2
00:20 15.7 °C 11.7 °C 1010.2 hPa South 1.6 km/h 6.4 km/h 77% 0.0 mm W/m2
00:30 15.8 °C 11.9 °C 1010.2 hPa South 3.2 km/h 11.3 km/h 78% 0.0 mm W/m2
00:40 15.7 °C 12.4 °C 1009.9 hPa South 8 km/h 14.5 km/h 81% 0.0 mm W/m2
00:50 15.7 °C 12.6 °C 1009.8 hPa South 4.8 km/h 16.1 km/h 82% 0.0 mm W/m2
01:00 15.8 °C 12.9 °C 1009.7 hPa South 3.2 km/h 19.3 km/h 83% 0.0 mm W/m2
01:10 15.8 °C 12.9 °C 1009.8 hPa Calm   19.3 km/h 83% 0.0 mm W/m2
01:20 15.6 °C 12.7 °C 1009.9 hPa South 8 km/h 14.5 km/h 83% 0.0 mm W/m2
01:30 15.6 °C 12.7 °C 1010.1 hPa South 11.3 km/h 16.1 km/h 83% 0.0 mm W/m2
01:40 15.4 °C 12.5 °C 1010.1 hPa South 3.2 km/h 14.5 km/h 83% 0.0 mm W/m2
01:50 15.2 °C 12.3 °C 1010.2 hPa South 4.8 km/h 14.5 km/h 83% 0.0 mm W/m2
02:00 15.1 °C 12.2 °C 1010.1 hPa Calm   8 km/h 83% 0.0 mm W/m2
02:10 14.9 °C 12.2 °C 1010.0 hPa Calm   6.4 km/h 84% 0.0 mm W/m2
02:20 14.8 °C 12.2 °C 1010.1 hPa Calm   8 km/h 84% 0.0 mm W/m2
02:30 14.7 °C 12.1 °C 1009.7 hPa Calm   3.2 km/h 84% 0.0 mm W/m2
02:40 14.7 °C 12 °C 1009.6 hPa Calm   4.8 km/h 84% 0.0 mm W/m2
02:50 14.7 °C 12.1 °C 1009.7 hPa Calm   6.4 km/h 84% 0.0 mm W/m2
03:00 14.6 °C 11.9 °C 1009.6 hPa Calm   3.2 km/h 84% 0.0 mm W/m2
03:10 14.5 °C 11.8 °C 1009.7 hPa Calm   4.8 km/h 84% 0.0 mm W/m2
03:20 14.4 °C 11.6 °C 1009.8 hPa South 1.6 km/h 4.8 km/h 83% 0.0 mm W/m2
03:30 14.5 °C 11.7 °C 1009.8 hPa South 4.8 km/h 6.4 km/h 83% 0.5 mm W/m2
03:40 14.3 °C 11.6 °C 1010.0 hPa South 3.2 km/h 4.8 km/h 84% 0.5 mm W/m2
03:50 14.4 °C 11.8 °C 1009.9 hPa South 3.2 km/h 12.9 km/h 84% 0.5 mm W/m2
04:00 14.7 °C 12.1 °C 1009.7 hPa Calm   6.4 km/h 84% 0.5 mm W/m2
04:10 15 °C 12.3 °C 1009.5 hPa South 6.4 km/h 11.3 km/h 84% 0.5 mm W/m2
04:20 15.2 °C 12.7 °C 1009.5 hPa Calm   6.4 km/h 85% 0.5 mm W/m2
04:30 15.3 °C 12.7 °C 1009.3 hPa Calm   4.8 km/h 84% 0.0 mm W/m2
04:40 15.3 °C 12.8 °C 1009.1 hPa Calm     85% 0.0 mm W/m2
04:50 15.6 °C 13.1 °C 1009.1 hPa South 3.2 km/h 6.4 km/h 85% 0.0 mm W/m2
05:00 15.8 °C 13.1 °C 1008.8 hPa Calm   6.4 km/h 84% 0.0 mm W/m2
05:10 16 °C 13.3 °C 1008.9 hPa South 1.6 km/h 6.4 km/h 84% 0.2 mm W/m2
05:20 16.1 °C 13.3 °C 1008.8 hPa South 3.2 km/h 8 km/h 84% 0.2 mm W/m2
05:30 16.2 °C 13.4 °C 1008.9 hPa Calm   12.9 km/h 84% 0.5 mm W/m2
05:40 16.1 °C 13.3 °C 1008.8 hPa South 4.8 km/h 16.1 km/h 84% 0.5 mm W/m2
05:50 15.9 °C 13.2 °C 1008.8 hPa South 1.6 km/h 22.5 km/h 84% 0.5 mm W/m2
06:00 15.8 °C 13.1 °C 1008.6 hPa Calm   12.9 km/h 84% 0.5 mm W/m2
06:10 15.9 °C 13.2 °C 1008.3 hPa Calm   8 km/h 84% 0.2 mm W/m2
06:20 15.9 °C 13.2 °C 1008.7 hPa South 1.6 km/h 11.3 km/h 84% 0.2 mm W/m2
06:30 16 °C 13.3 °C 1008.3 hPa Calm   8 km/h 84% 0.2 mm W/m2
06:40 16.1 °C 13.4 °C 1008.1 hPa Calm   9.7 km/h 84% 0.5 mm W/m2
06:50 16.4 °C 13.7 °C 1008.2 hPa South 6.4 km/h 8 km/h 84% 0.5 mm W/m2
07:00 16.7 °C 13.9 °C 1008.1 hPa South 3.2 km/h 12.9 km/h 84% 1.0 mm W/m2
07:10 16.8 °C 14.1 °C 1008.1 hPa South 3.2 km/h 8 km/h 84% 1.0 mm W/m2
07:20 16.9 °C 14.2 °C 1008.1 hPa South 4.8 km/h 8 km/h 84% 1.3 mm W/m2
07:30 17.1 °C 14.3 °C 1008.1 hPa South 3.2 km/h 11.3 km/h 84% 1.0 mm W/m2
07:40 17.1 °C 14.4 °C 1008.1 hPa South 4.8 km/h 11.3 km/h 84% 0.8 mm W/m2
07:50 16.9 °C 14.2 °C 1008.1 hPa Calm   6.4 km/h 84% 0.8 mm W/m2
08:00 16.7 °C 14 °C 1008.2 hPa Calm   3.2 km/h 84% 0.2 mm W/m2
08:10 16.6 °C 13.9 °C 1008.1 hPa South 3.2 km/h 8 km/h 84% 0.2 mm W/m2
08:20 16.8 °C 14.1 °C 1008.0 hPa Calm   11.3 km/h 84% 0.0 mm W/m2
08:30 16.8 °C 14.1 °C 1008.1 hPa Calm   8 km/h 84% 0.0 mm W/m2
08:40 16.7 °C 14 °C 1007.9 hPa Calm   6.4 km/h 84% 0.0 mm W/m2
08:50 16.8 °C 14.1 °C 1007.6 hPa Calm   8 km/h 84% 0.0 mm W/m2
09:00 16.9 °C 14.2 °C 1007.7 hPa South 3.2 km/h 6.4 km/h 84% 0.0 mm W/m2
09:10 17.2 °C 14.4 °C 1007.9 hPa Calm   6.4 km/h 84% 0.0 mm W/m2
09:20 17.3 °C 14.6 °C 1007.8 hPa Calm   4.8 km/h 84% 0.0 mm W/m2
09:30 17.5 °C 14.8 °C 1007.9 hPa Calm   3.2 km/h 84% 0.0 mm W/m2
09:40 17.9 °C 15.2 °C 1007.7 hPa South 1.6 km/h 6.4 km/h 84% 0.0 mm W/m2
09:50 18.2 °C 15.4 °C 1007.7 hPa Calm   8 km/h 84% 0.0 mm W/m2
10:00 18.6 °C 15.8 °C 1007.7 hPa South 4.8 km/h 6.4 km/h 84% 0.0 mm W/m2
10:10 18.9 °C 15.8 °C 1007.6 hPa South 1.6 km/h 6.4 km/h 82% 0.0 mm W/m2
10:20 19.4 °C 16.1 °C 1007.4 hPa Calm   8 km/h 81% 0.0 mm W/m2
10:30 20.2 °C 16.4 °C 1007.4 hPa Calm   11.3 km/h 79% 0.0 mm W/m2
10:40 20.4 °C 16.3 °C 1007.4 hPa South 3.2 km/h 6.4 km/h 77% 0.0 mm W/m2
10:50 20.6 °C 16.6 °C 1007.3 hPa South 1.6 km/h 11.3 km/h 78% 0.0 mm W/m2
11:00 20.4 °C 16 °C 1007.2 hPa South 1.6 km/h 14.5 km/h 76% 0.0 mm W/m2
11:05 20.5 °C 16.1 °C 1007.3 hPa South 8 km/h 14.5 km/h 76% 0.0 mm W/m2
11:10 21 °C 16.2 °C 1007.2 hPa South 3.2 km/h 8 km/h 74% 0.0 mm W/m2
11:20 21.7 °C 16.2 °C 1007.1 hPa South 6.4 km/h 12.9 km/h 71% 0.0 mm W/m2
11:30 21.4 °C 16.1 °C 1007.1 hPa South 8 km/h 14.5 km/h 72% 0.0 mm W/m2
11:40 21.6 °C 16.3 °C 1007.0 hPa South 1.6 km/h 14.5 km/h 72% 0.0 mm W/m2
11:50 21.9 °C 16.4 °C 1006.9 hPa South 8 km/h 12.9 km/h 71% 0.0 mm W/m2
12:00 21.8 °C 16.1 °C 1006.9 hPa South 4.8 km/h 17.7 km/h 70% 0.0 mm W/m2
12:10 22.1 °C 16.4 °C 1006.9 hPa South 8 km/h 16.1 km/h 70% 0.0 mm W/m2
12:20 22.4 °C 16.2 °C 1006.8 hPa South 4.8 km/h 17.7 km/h 68% 0.0 mm W/m2
12:30 22.1 °C 16.1 °C 1006.6 hPa South 3.2 km/h 19.3 km/h 69% 0.0 mm W/m2
12:40 22.7 °C 16.3 °C 1006.6 hPa South 3.2 km/h 16.1 km/h 67% 0.0 mm W/m2
12:50 22.7 °C 16.2 °C 1006.5 hPa South 6.4 km/h 19.3 km/h 67% 0.0 mm W/m2
13:00 22.9 °C 16.3 °C 1006.5 hPa South 16.1 km/h 22.5 km/h 66% 0.0 mm W/m2
13:10 22.9 °C 15.9 °C 1006.4 hPa South 3.2 km/h 20.9 km/h 65% 0.0 mm W/m2
13:20 22.9 °C 16 °C 1006.4 hPa South 6.4 km/h 17.7 km/h 65% 0.0 mm W/m2
13:30 22.9 °C 15.9 °C 1006.3 hPa South 16.1 km/h 17.7 km/h 65% 0.0 mm W/m2
13:40 23.3 °C 16.1 °C 1006.1 hPa South 9.7 km/h 14.5 km/h 64% 0.0 mm W/m2
13:50 23.4 °C 16 °C 1006.2 hPa South 8 km/h 16.1 km/h 63% 0.0 mm W/m2
14:00 23.3 °C 15.8 °C 1006.1 hPa South 8 km/h 16.1 km/h 63% 0.0 mm W/m2
14:10 22.9 °C 15.8 °C 1006.1 hPa South 4.8 km/h 19.3 km/h 64% 0.0 mm W/m2
14:20 22.8 °C 15.9 °C 1006.1 hPa South 4.8 km/h 17.7 km/h 65% 0.0 mm W/m2
14:30 22.4 °C 15.8 °C 1006.0 hPa South 1.6 km/h 14.5 km/h 66% 0.0 mm W/m2
14:40 22.7 °C 16.1 °C 1006.1 hPa South 6.4 km/h 16.1 km/h 66% 0.0 mm W/m2
14:50 23 °C 16.1 °C 1006.0 hPa South 6.4 km/h 16.1 km/h 65% 0.0 mm W/m2
15:00 22.7 °C 15.5 °C 1006.0 hPa South 6.4 km/h 20.9 km/h 64% 0.0 mm W/m2
15:10 22.4 °C 15.7 °C 1006.0 hPa South 4.8 km/h 17.7 km/h 66% 0.0 mm W/m2
15:20 22.7 °C 16 °C 1006.0 hPa South 3.2 km/h 16.1 km/h 66% 0.0 mm W/m2
15:30 22.9 °C 16 °C 1006.0 hPa South 6.4 km/h 14.5 km/h 65% 0.0 mm W/m2
15:40 23.4 °C 16.2 °C 1006.0 hPa Calm   17.7 km/h 64% 0.0 mm W/m2
Compliments of Weather Underground - 2 mb
This data is offered only as a general guide to local weather conditions. It should not be relied upon in lieu of officially disseminated weather information for determining possible risk to persons or property. This site, including all information contained therein, is made available as is without warranties of any kind, either express or implied. The Vicarage Weather Feed© includes links to other sites for user convenience only. The content of any linked third-party site is not controlled by The Vicarage Weather Feed©. Access to any third-party website through The Vicarage Weather Feed©, regardless of whether or not the third-party site is a linked site, is entirely at the users own risk. Externally sourced content or material is excluded from The Vicarage Weather Feed© copyright and is the copyright and property of the respective provider. Skywarn® and the Skywarn® logo are registered trademarks of the National Oceanic and Atmospheric Administration, used with permission.